sensor_id;sensor_type;location;lat;lon;timestamp;pressure;altitude;pressure_sealevel;temperature;humidity
13029;BME280;6581;42.662;23.402;2023-04-19T00:01:14;94938.25;;;10.88;100.00
13029;BME280;6581;42.662;23.402;2023-04-19T00:03:44;94933.31;;;10.86;100.00
13029;BME280;6581;42.662;23.402;2023-04-19T00:06:11;94935.22;;;10.86;100.00
13029;BME280;6581;42.662;23.402;2023-04-19T00:08:39;94932.97;;;10.91;100.00
13029;BME280;6581;42.662;23.402;2023-04-19T00:11:07;94934.81;;;10.84;100.00
13029;BME280;6581;42.662;23.402;2023-04-19T00:13:34;94925.38;;;10.86;100.00
13029;BME280;6581;42.662;23.402;2023-04-19T00:16:01;94932.16;;;10.80;100.00
13029;BME280;6581;42.662;23.402;2023-04-19T00:18:28;94926.44;;;10.75;100.00
13029;BME280;6581;42.662;23.402;2023-04-19T00:20:56;94918.47;;;10.71;100.00
13029;BME280;6581;42.662;23.402;2023-04-19T00:23:23;94918.13;;;10.76;100.00
13029;BME280;6581;42.662;23.402;2023-04-19T00:25:51;94917.78;;;10.81;100.00
13029;BME280;6581;42.662;23.402;2023-04-19T00:28:18;94913.97;;;10.79;100.00
13029;BME280;6581;42.662;23.402;2023-04-19T00:30:45;94922.66;;;10.76;100.00
13029;BME280;6581;42.662;23.402;2023-04-19T00:33:12;94915.09;;;10.78;100.00
13029;BME280;6581;42.662;23.402;2023-04-19T00:36:05;94911.97;;;10.65;99.99
13029;BME280;6581;42.662;23.402;2023-04-19T00:38:32;94910.50;;;10.68;100.00
13029;BME280;6581;42.662;23.402;2023-04-19T00:40:59;94911.53;;;10.59;100.00
13029;BME280;6581;42.662;23.402;2023-04-19T00:43:26;94911.16;;;10.57;100.00
13029;BME280;6581;42.662;23.402;2023-04-19T00:45:53;94910.38;;;10.53;100.00
13029;BME280;6581;42.662;23.402;2023-04-19T00:48:20;94910.38;;;10.57;100.00
13029;BME280;6581;42.662;23.402;2023-04-19T00:50:47;94907.34;;;10.55;100.00
13029;BME280;6581;42.662;23.402;2023-04-19T00:53:16;94898.28;;;10.56;100.00
13029;BME280;6581;42.662;23.402;2023-04-19T00:55:44;94906.56;;;10.54;100.00
13029;BME280;6581;42.662;23.402;2023-04-19T00:58:11;94903.91;;;10.54;100.00
13029;BME280;6581;42.662;23.402;2023-04-19T01:00:38;94905.31;;;10.38;100.00
13029;BME280;6581;42.662;23.402;2023-04-19T01:03:05;94906.19;;;10.52;100.00
13029;BME280;6581;42.662;23.402;2023-04-19T01:05:58;94904.34;;;10.56;100.00
13029;BME280;6581;42.662;23.402;2023-04-19T01:08:27;94900.53;;;10.54;100.00
13029;BME280;6581;42.662;23.402;2023-04-19T01:10:54;94899.84;;;10.64;100.00
13029;BME280;6581;42.662;23.402;2023-04-19T01:13:21;94907.84;;;10.68;100.00
13029;BME280;6581;42.662;23.402;2023-04-19T01:15:48;94893.50;;;10.76;99.68
13029;BME280;6581;42.662;23.402;2023-04-19T01:18:16;94903.44;;;10.86;99.20
13029;BME280;6581;42.662;23.402;2023-04-19T01:20:44;94897.72;;;10.84;98.77
13029;BME280;6581;42.662;23.402;2023-04-19T01:23:12;94898.47;;;10.81;99.12
13029;BME280;6581;42.662;23.402;2023-04-19T01:25:39;94900.28;;;10.73;99.05
13029;BME280;6581;42.662;23.402;2023-04-19T01:28:06;94899.53;;;10.73;99.12
13029;BME280;6581;42.662;23.402;2023-04-19T01:30:34;94897.69;;;10.77;99.14
13029;BME280;6581;42.662;23.402;2023-04-19T01:33:01;94892.41;;;10.77;98.87
13029;BME280;6581;42.662;23.402;2023-04-19T01:35:28;94892.72;;;10.72;100.00
13029;BME280;6581;42.662;23.402;2023-04-19T01:37:55;94892.78;;;10.82;98.98
13029;BME280;6581;42.662;23.402;2023-04-19T01:40:24;94891.31;;;10.85;99.22
13029;BME280;6581;42.662;23.402;2023-04-19T01:42:52;94893.88;;;10.74;99.60
13029;BME280;6581;42.662;23.402;2023-04-19T01:45:19;94893.44;;;10.65;98.63
13029;BME280;6581;42.662;23.402;2023-04-19T01:47:50;94886.16;;;10.55;98.50
13029;BME280;6581;42.662;23.402;2023-04-19T01:50:17;94884.91;;;10.42;99.75
13029;BME280;6581;42.662;23.402;2023-04-19T01:52:44;94879.31;;;10.50;99.30
13029;BME280;6581;42.662;23.402;2023-04-19T01:55:11;94877.69;;;10.39;100.00
13029;BME280;6581;42.662;23.402;2023-04-19T01:57:40;94876.97;;;10.45;100.00
13029;BME280;6581;42.662;23.402;2023-04-19T02:00:08;94878.44;;;10.36;100.00
13029;BME280;6581;42.662;23.402;2023-04-19T02:02:44;94873.06;;;10.29;100.00
13029;BME280;6581;42.662;23.402;2023-04-19T02:05:12;94876.44;;;10.26;100.00
13029;BME280;6581;42.662;23.402;2023-04-19T02:07:39;94873.81;;;10.26;100.00
13029;BME280;6581;42.662;23.402;2023-04-19T02:10:08;94869.56;;;10.17;100.00
13029;BME280;6581;42.662;23.402;2023-04-19T02:12:36;94876.00;;;10.16;100.00
13029;BME280;6581;42.662;23.402;2023-04-19T02:15:06;94876.75;;;10.17;100.00
13029;BME280;6581;42.662;23.402;2023-04-19T02:17:34;94869.81;;;10.09;100.00
13029;BME280;6581;42.662;23.402;2023-04-19T02:20:01;94872.84;;;10.07;100.00
13029;BME280;6581;42.662;23.402;2023-04-19T02:22:29;94883.19;;;10.19;100.00
13029;BME280;6581;42.662;23.402;2023-04-19T02:24:57;94879.88;;;10.26;100.00
13029;BME280;6581;42.662;23.402;2023-04-19T02:27:31;94880.53;;;10.16;100.00
13029;BME280;6581;42.662;23.402;2023-04-19T02:29:58;94883.16;;;10.16;100.00
13029;BME280;6581;42.662;23.402;2023-04-19T02:32:27;94880.13;;;10.17;100.00
13029;BME280;6581;42.662;23.402;2023-04-19T02:34:54;94868.97;;;9.98;100.00
13029;BME280;6581;42.662;23.402;2023-04-19T02:37:21;94878.81;;;10.01;100.00
13029;BME280;6581;42.662;23.402;2023-04-19T02:39:48;94874.41;;;10.12;100.00
13029;BME280;6581;42.662;23.402;2023-04-19T02:42:15;94876.94;;;10.01;100.00
13029;BME280;6581;42.662;23.402;2023-04-19T02:44:42;94876.13;;;9.97;100.00
13029;BME280;6581;42.662;23.402;2023-04-19T02:47:09;94877.97;;;9.90;100.00
13029;BME280;6581;42.662;23.402;2023-04-19T02:49:38;94872.59;;;9.86;100.00
13029;BME280;6581;42.662;23.402;2023-04-19T02:52:07;94882.69;;;9.73;100.00
13029;BME280;6581;42.662;23.402;2023-04-19T02:54:38;94872.03;;;9.66;100.00
13029;BME280;6581;42.662;23.402;2023-04-19T02:57:05;94869.41;;;9.66;100.00
13029;BME280;6581;42.662;23.402;2023-04-19T02:59:32;94869.75;;;9.65;100.00
13029;BME280;6581;42.662;23.402;2023-04-19T03:02:27;94870.19;;;9.70;100.00
13029;BME280;6581;42.662;23.402;2023-04-19T03:04:55;94866.81;;;9.73;100.00
13029;BME280;6581;42.662;23.402;2023-04-19T03:07:22;94870.81;;;9.60;100.00
13029;BME280;6581;42.662;23.402;2023-04-19T03:09:50;94863.88;;;9.49;100.00
13029;BME280;6581;42.662;23.402;2023-04-19T03:12:19;94870.09;;;9.63;100.00
13029;BME280;6581;42.662;23.402;2023-04-19T03:14:46;94874.19;;;9.57;100.00
13029;BME280;6581;42.662;23.402;2023-04-19T03:17:14;94866.38;;;9.68;100.00
13029;BME280;6581;42.662;23.402;2023-04-19T03:19:41;94866.81;;;9.73;100.00
13029;BME280;6581;42.662;23.402;2023-04-19T03:22:09;94867.13;;;9.68;100.00
13029;BME280;6581;42.662;23.402;2023-04-19T03:24:36;94866.03;;;9.69;100.00
13029;BME280;6581;42.662;23.402;2023-04-19T03:27:18;94867.13;;;9.68;100.00
13029;BME280;6581;42.662;23.402;2023-04-19T03:29:50;94862.75;;;9.50;100.00
13029;BME280;6581;42.662;23.402;2023-04-19T03:32:17;94865.41;;;9.50;100.00
13029;BME280;6581;42.662;23.402;2023-04-19T03:34:44;94868.84;;;9.54;100.00
13029;BME280;6581;42.662;23.402;2023-04-19T03:37:15;94869.25;;;9.56;100.00
13029;BME280;6581;42.662;23.402;2023-04-19T03:39:43;94860.72;;;9.36;100.00
13029;BME280;6581;42.662;23.402;2023-04-19T03:42:14;94860.34;;;9.38;100.00
13029;BME280;6581;42.662;23.402;2023-04-19T03:44:46;94859.50;;;9.30;100.00
13029;BME280;6581;42.662;23.402;2023-04-19T03:47:16;94871.56;;;9.27;100.00
13029;BME280;6581;42.662;23.402;2023-04-19T03:49:47;94858.66;;;9.22;100.00
13029;BME280;6581;42.662;23.402;2023-04-19T03:52:16;94862.41;;;9.21;100.00
13029;BME280;6581;42.662;23.402;2023-04-19T03:54:43;94859.72;;;9.18;100.00
13029;BME280;6581;42.662;23.402;2023-04-19T03:57:24;94862.78;;;9.20;100.00
13029;BME280;6581;42.662;23.402;2023-04-19T03:59:52;94866.53;;;9.19;100.00
13029;BME280;6581;42.662;23.402;2023-04-19T04:02:19;94872.94;;;9.18;100.00
13029;BME280;6581;42.662;23.402;2023-04-19T04:04:48;94870.25;;;9.14;100.00
13029;BME280;6581;42.662;23.402;2023-04-19T04:07:20;94865.28;;;9.09;100.00
13029;BME280;6581;42.662;23.402;2023-04-19T04:09:48;94879.22;;;9.06;100.00
13029;BME280;6581;42.662;23.402;2023-04-19T04:12:15;94871.28;;;9.06;100.00
13029;BME280;6581;42.662;23.402;2023-04-19T04:14:42;94880.81;;;9.14;100.00
13029;BME280;6581;42.662;23.402;2023-04-19T04:17:12;94873.34;;;9.20;100.00
13029;BME280;6581;42.662;23.402;2023-04-19T04:19:40;94875.94;;;9.16;100.00
13029;BME280;6581;42.662;23.402;2023-04-19T04:22:07;94881.28;;;9.20;100.00
13029;BME280;6581;42.662;23.402;2023-04-19T04:24:40;94878.22;;;9.18;100.00
13029;BME280;6581;42.662;23.402;2023-04-19T04:27:54;94877.91;;;9.23;100.00
13029;BME280;6581;42.662;23.402;2023-04-19T04:30:23;94879.78;;;9.22;100.00
13029;BME280;6581;42.662;23.402;2023-04-19T04:32:52;94879.91;;;9.29;100.00
13029;BME280;6581;42.662;23.402;2023-04-19T04:35:23;94881.00;;;9.28;100.00
13029;BME280;6581;42.662;23.402;2023-04-19T04:37:56;94885.44;;;9.21;100.00
13029;BME280;6581;42.662;23.402;2023-04-19T04:40:50;94881.16;;;9.39;100.00
13029;BME280;6581;42.662;23.402;2023-04-19T04:43:18;94888.09;;;9.51;100.00
13029;BME280;6581;42.662;23.402;2023-04-19T04:45:47;94889.47;;;9.41;100.00
13029;BME280;6581;42.662;23.402;2023-04-19T04:48:16;94878.94;;;9.45;100.00
13029;BME280;6581;42.662;23.402;2023-04-19T04:50:44;94888.53;;;9.56;100.00
13029;BME280;6581;42.662;23.402;2023-04-19T04:53:11;94892.06;;;9.67;100.00
13029;BME280;6581;42.662;23.402;2023-04-19T04:55:40;94889.06;;;9.69;100.00
13029;BME280;6581;42.662;23.402;2023-04-19T04:58:09;94893.09;;;9.59;100.00
13029;BME280;6581;42.662;23.402;2023-04-19T05:00:47;94893.41;;;9.54;100.00
13029;BME280;6581;42.662;23.402;2023-04-19T05:03:15;94888.31;;;9.72;100.00
13029;BME280;6581;42.662;23.402;2023-04-19T05:05:47;94892.06;;;9.67;100.00
13029;BME280;6581;42.662;23.402;2023-04-19T05:08:41;94890.56;;;9.66;100.00
13029;BME280;6581;42.662;23.402;2023-04-19T05:11:16;94894.91;;;9.52;100.00
13029;BME280;6581;42.662;23.402;2023-04-19T05:13:45;94885.50;;;9.58;100.00
13029;BME280;6581;42.662;23.402;2023-04-19T05:16:38;94900.31;;;9.62;100.00
13029;BME280;6581;42.662;23.402;2023-04-19T05:19:05;94895.56;;;9.75;100.00
13029;BME280;6581;42.662;23.402;2023-04-19T05:21:38;94901.16;;;9.70;100.00
13029;BME280;6581;42.662;23.402;2023-04-19T05:24:07;94889.84;;;9.73;100.00
13029;BME280;6581;42.662;23.402;2023-04-19T05:26:36;94903.47;;;9.71;100.00
13029;BME280;6581;42.662;23.402;2023-04-19T05:29:07;94905.97;;;9.61;100.00
13029;BME280;6581;42.662;23.402;2023-04-19T05:31:41;94911.97;;;9.58;100.00
13029;BME280;6581;42.662;23.402;2023-04-19T05:34:43;94901.03;;;9.59;100.00
13029;BME280;6581;42.662;23.402;2023-04-19T05:37:14;94901.97;;;9.74;100.00
13029;BME280;6581;42.662;23.402;2023-04-19T05:39:41;94908.78;;;9.75;100.00
13029;BME280;6581;42.662;23.402;2023-04-19T05:42:08;94901.19;;;9.73;100.00
13029;BME280;6581;42.662;23.402;2023-04-19T05:44:37;94900.41;;;9.69;100.00
13029;BME280;6581;42.662;23.402;2023-04-19T05:47:04;94897.78;;;9.73;100.00
13029;BME280;6581;42.662;23.402;2023-04-19T05:50:01;94901.56;;;9.72;100.00
13029;BME280;6581;42.662;23.402;2023-04-19T05:52:36;94905.91;;;9.91;100.00
13029;BME280;6581;42.662;23.402;2023-04-19T05:55:04;94903.94;;;9.81;100.00
13029;BME280;6581;42.662;23.402;2023-04-19T05:57:33;94908.38;;;9.73;100.00
13029;BME280;6581;42.662;23.402;2023-04-19T06:00:02;94903.22;;;9.84;100.00
13029;BME280;6581;42.662;23.402;2023-04-19T06:02:39;94906.78;;;9.98;100.00
13029;BME280;6581;42.662;23.402;2023-04-19T06:05:09;94905.47;;;10.18;100.00
13029;BME280;6581;42.662;23.402;2023-04-19T06:07:37;94906.38;;;10.33;100.00
13029;BME280;6581;42.662;23.402;2023-04-19T06:10:05;94905.28;;;10.34;100.00
13029;BME280;6581;42.662;23.402;2023-04-19T06:12:33;94917.00;;;10.37;100.00
13029;BME280;6581;42.662;23.402;2023-04-19T06:15:01;94910.69;;;10.48;100.00
13029;BME280;6581;42.662;23.402;2023-04-19T06:17:29;94914.97;;;10.19;100.00
13029;BME280;6581;42.662;23.402;2023-04-19T06:19:56;94924.00;;;10.18;100.00
13029;BME280;6581;42.662;23.402;2023-04-19T06:22:23;94920.31;;;10.27;100.00
13029;BME280;6581;42.662;23.402;2023-04-19T06:24:51;94912.75;;;10.25;100.00
13029;BME280;6581;42.662;23.402;2023-04-19T06:27:18;94921.53;;;10.36;100.00
13029;BME280;6581;42.662;23.402;2023-04-19T06:29:45;94917.38;;;10.35;100.00
13029;BME280;6581;42.662;23.402;2023-04-19T06:32:13;94918.34;;;10.57;100.00
13029;BME280;6581;42.662;23.402;2023-04-19T06:34:40;94919.59;;;10.74;100.00
13029;BME280;6581;42.662;23.402;2023-04-19T06:37:08;94917.38;;;10.35;100.00
13029;BME280;6581;42.662;23.402;2023-04-19T06:39:35;94921.66;;;10.50;100.00
13029;BME280;6581;42.662;23.402;2023-04-19T06:42:02;94921.34;;;10.55;100.00
13029;BME280;6581;42.662;23.402;2023-04-19T06:44:30;94919.88;;;10.58;100.00
13029;BME280;6581;42.662;23.402;2023-04-19T06:46:57;94922.91;;;10.60;100.00
13029;BME280;6581;42.662;23.402;2023-04-19T06:49:26;94921.09;;;10.68;100.00
13029;BME280;6581;42.662;23.402;2023-04-19T06:51:53;94919.38;;;10.93;100.00
13029;BME280;6581;42.662;23.402;2023-04-19T06:54:20;94930.00;;;11.00;100.00
13029;BME280;6581;42.662;23.402;2023-04-19T06:56:48;94928.22;;;11.15;99.75
13029;BME280;6581;42.662;23.402;2023-04-19T06:59:18;94932.38;;;11.12;98.81
13029;BME280;6581;42.662;23.402;2023-04-19T07:01:46;94934.34;;;11.22;98.63
13029;BME280;6581;42.662;23.402;2023-04-19T07:04:14;94940.38;;;11.16;99.21
13029;BME280;6581;42.662;23.402;2023-04-19T07:06:42;94936.34;;;11.36;97.24
13029;BME280;6581;42.662;23.402;2023-04-19T07:09:09;94942.78;;;11.42;96.36
13029;BME280;6581;42.662;23.402;2023-04-19T07:11:36;94938.66;;;11.48;95.68
13029;BME280;6581;42.662;23.402;2023-04-19T07:14:03;94935.25;;;11.51;94.73
13029;BME280;6581;42.662;23.402;2023-04-19T07:16:56;94928.81;;;11.48;95.17
13029;BME280;6581;42.662;23.402;2023-04-19T07:19:23;94937.97;;;11.54;94.67
13029;BME280;6581;42.662;23.402;2023-04-19T07:21:52;94941.06;;;11.71;92.90
13029;BME280;6581;42.662;23.402;2023-04-19T07:24:19;94933.22;;;11.92;92.91
13029;BME280;6581;42.662;23.402;2023-04-19T07:26:46;94937.34;;;11.82;92.91
13029;BME280;6581;42.662;23.402;2023-04-19T07:29:13;94934.34;;;11.91;92.55
13029;BME280;6581;42.662;23.402;2023-04-19T07:31:40;94952.88;;;11.80;92.08
13029;BME280;6581;42.662;23.402;2023-04-19T07:34:07;94936.22;;;11.83;92.65
13029;BME280;6581;42.662;23.402;2023-04-19T07:36:35;94932.16;;;12.14;90.96
13029;BME280;6581;42.662;23.402;2023-04-19T07:39:04;94932.00;;;11.79;92.19
13029;BME280;6581;42.662;23.402;2023-04-19T07:41:31;94940.03;;;11.86;93.75
13029;BME280;6581;42.662;23.402;2023-04-19T07:43:58;94937.81;;;12.06;92.40
13029;BME280;6581;42.662;23.402;2023-04-19T07:46:26;94935.63;;;12.39;91.69
13029;BME280;6581;42.662;23.402;2023-04-19T07:48:53;94943.63;;;12.61;89.24
13029;BME280;6581;42.662;23.402;2023-04-19T07:51:20;94938.31;;;12.57;89.56
13029;BME280;6581;42.662;23.402;2023-04-19T07:53:49;94940.59;;;12.62;87.66
13029;BME280;6581;42.662;23.402;2023-04-19T07:56:17;94937.56;;;12.67;86.84
13029;BME280;6581;42.662;23.402;2023-04-19T07:58:45;94946.28;;;12.61;85.81
13029;BME280;6581;42.662;23.402;2023-04-19T08:01:12;94945.53;;;12.50;86.41
13029;BME280;6581;42.662;23.402;2023-04-19T08:03:40;94939.41;;;12.35;87.42
13029;BME280;6581;42.662;23.402;2023-04-19T08:06:07;94936.06;;;12.77;87.99
13029;BME280;6581;42.662;23.402;2023-04-19T08:08:34;94944.03;;;12.91;85.35
13029;BME280;6581;42.662;23.402;2023-04-19T08:11:02;94937.94;;;12.98;84.38
13029;BME280;6581;42.662;23.402;2023-04-19T08:13:31;94943.63;;;12.93;84.16
13029;BME280;6581;42.662;23.402;2023-04-19T08:15:58;94939.47;;;12.74;85.18
13029;BME280;6581;42.662;23.402;2023-04-19T08:18:25;94943.28;;;12.69;85.08
13029;BME280;6581;42.662;23.402;2023-04-19T08:20:52;94933.72;;;12.43;86.23
13029;BME280;6581;42.662;23.402;2023-04-19T08:23:21;94938.63;;;12.24;86.09
13029;BME280;6581;42.662;23.402;2023-04-19T08:25:48;94939.38;;;12.17;88.12
13029;BME280;6581;42.662;23.402;2023-04-19T08:28:15;94937.94;;;12.55;87.70
13029;BME280;6581;42.662;23.402;2023-04-19T08:30:44;94940.56;;;12.48;85.50
13029;BME280;6581;42.662;23.402;2023-04-19T08:33:11;94946.25;;;12.43;85.66
13029;BME280;6581;42.662;23.402;2023-04-19T08:35:38;94942.03;;;12.14;87.35
13029;BME280;6581;42.662;23.402;2023-04-19T08:38:06;94931.00;;;12.08;88.04
13029;BME280;6581;42.662;23.402;2023-04-19T08:40:34;94935.78;;;11.78;88.84
13029;BME280;6581;42.662;23.402;2023-04-19T08:43:04;94938.16;;;11.93;88.58
13029;BME280;6581;42.662;23.402;2023-04-19T08:45:33;94928.97;;;11.73;90.02
13029;BME280;6581;42.662;23.402;2023-04-19T08:48:03;94927.53;;;11.86;89.03
13029;BME280;6581;42.662;23.402;2023-04-19T08:50:55;94930.22;;;12.08;88.26
13029;BME280;6581;42.662;23.402;2023-04-19T08:53:27;94926.84;;;12.21;87.89
13029;BME280;6581;42.662;23.402;2023-04-19T08:55:54;94929.91;;;12.37;86.28
13029;BME280;6581;42.662;23.402;2023-04-19T08:58:48;94927.25;;;12.30;86.74
13029;BME280;6581;42.662;23.402;2023-04-19T09:01:15;94915.50;;;12.38;87.46
13029;BME280;6581;42.662;23.402;2023-04-19T09:03:44;94926.19;;;12.92;85.23
13029;BME280;6581;42.662;23.402;2023-04-19T09:06:11;94916.31;;;13.17;83.92
13029;BME280;6581;42.662;23.402;2023-04-19T09:08:39;94915.88;;;13.43;80.58
13029;BME280;6581;42.662;23.402;2023-04-19T09:11:35;94913.56;;;13.59;79.16
13029;BME280;6581;42.662;23.402;2023-04-19T09:14:10;94918.19;;;13.30;78.43
13029;BME280;6581;42.662;23.402;2023-04-19T09:16:37;94918.19;;;13.38;79.57
13029;BME280;6581;42.662;23.402;2023-04-19T09:19:06;94915.91;;;13.25;79.80
13029;BME280;6581;42.662;23.402;2023-04-19T09:21:34;94911.31;;;13.51;80.30
13029;BME280;6581;42.662;23.402;2023-04-19T09:24:02;94909.72;;;13.74;80.46
13029;BME280;6581;42.662;23.402;2023-04-19T09:26:30;94910.88;;;13.70;78.11
13029;BME280;6581;42.662;23.402;2023-04-19T09:28:58;94909.47;;;13.34;78.72
13029;BME280;6581;42.662;23.402;2023-04-19T09:31:55;94911.28;;;13.58;78.54
13029;BME280;6581;42.662;23.402;2023-04-19T09:34:52;94908.28;;;13.45;78.19
13029;BME280;6581;42.662;23.402;2023-04-19T09:37:19;94913.63;;;13.31;76.91
13029;BME280;6581;42.662;23.402;2023-04-19T09:39:47;94912.91;;;13.16;78.11
13029;BME280;6581;42.662;23.402;2023-04-19T09:42:14;94909.84;;;12.89;79.33
13029;BME280;6581;42.662;23.402;2023-04-19T09:44:54;94902.25;;;12.95;79.83
13029;BME280;6581;42.662;23.402;2023-04-19T09:47:24;94904.53;;;12.86;79.41
13029;BME280;6581;42.662;23.402;2023-04-19T09:50:05;94894.28;;;12.81;78.81
13029;BME280;6581;42.662;23.402;2023-04-19T09:52:32;94894.28;;;12.95;80.85
13029;BME280;6581;42.662;23.402;2023-04-19T09:55:25;94890.50;;;13.14;77.48
13029;BME280;6581;42.662;23.402;2023-04-19T09:57:52;94892.75;;;12.98;76.97
13029;BME280;6581;42.662;23.402;2023-04-19T10:00:21;94886.69;;;13.01;77.63
13029;BME280;6581;42.662;23.402;2023-04-19T10:02:51;94887.78;;;13.24;77.61
13029;BME280;6581;42.662;23.402;2023-04-19T10:05:24;94881.34;;;13.04;75.32
13029;BME280;6581;42.662;23.402;2023-04-19T10:07:52;94876.44;;;13.13;76.46
13029;BME280;6581;42.662;23.402;2023-04-19T10:10:20;94874.47;;;13.35;75.10
13029;BME280;6581;42.662;23.402;2023-04-19T10:12:50;94876.78;;;13.29;74.31
13029;BME280;6581;42.662;23.402;2023-04-19T10:15:18;94870.25;;;13.55;75.23
13029;BME280;6581;42.662;23.402;2023-04-19T10:17:46;94871.25;;;13.86;78.77
13029;BME280;6581;42.662;23.402;2023-04-19T10:20:19;94874.56;;;14.08;72.13
13029;BME280;6581;42.662;23.402;2023-04-19T10:22:50;94879.16;;;14.04;72.77
13029;BME280;6581;42.662;23.402;2023-04-19T10:25:17;94867.75;;;14.03;71.10
13029;BME280;6581;42.662;23.402;2023-04-19T10:28:09;94859.69;;;14.14;72.43
13029;BME280;6581;42.662;23.402;2023-04-19T10:30:51;94866.03;;;14.41;73.12
13029;BME280;6581;42.662;23.402;2023-04-19T10:33:44;94863.47;;;14.20;70.41
13029;BME280;6581;42.662;23.402;2023-04-19T10:36:13;94862.72;;;14.19;72.95
13029;BME280;6581;42.662;23.402;2023-04-19T10:38:45;94862.41;;;14.07;71.70
13029;BME280;6581;42.662;23.402;2023-04-19T10:41:13;94859.31;;;14.12;71.27
13029;BME280;6581;42.662;23.402;2023-04-19T10:43:43;94870.72;;;14.16;70.23
13029;BME280;6581;42.662;23.402;2023-04-19T10:46:37;94853.59;;;14.17;71.03
13029;BME280;6581;42.662;23.402;2023-04-19T10:49:05;94858.41;;;14.40;69.56
13029;BME280;6581;42.662;23.402;2023-04-19T10:51:35;94851.22;;;14.37;69.41
13029;BME280;6581;42.662;23.402;2023-04-19T10:54:05;94837.03;;;14.50;70.71
13029;BME280;6581;42.662;23.402;2023-04-19T10:56:57;94850.00;;;14.45;67.04
13029;BME280;6581;42.662;23.402;2023-04-19T10:59:25;94844.41;;;14.25;69.24
13029;BME280;6581;42.662;23.402;2023-04-19T11:01:54;94843.91;;;14.44;70.01
13029;BME280;6581;42.662;23.402;2023-04-19T11:04:24;94844.28;;;14.46;67.65
13029;BME280;6581;42.662;23.402;2023-04-19T11:07:11;94836.25;;;14.50;66.72
13029;BME280;6581;42.662;23.402;2023-04-19T11:09:44;94844.06;;;14.75;68.16
13029;BME280;6581;42.662;23.402;2023-04-19T11:12:12;94832.22;;;14.79;63.43
13029;BME280;6581;42.662;23.402;2023-04-19T11:14:41;94824.97;;;14.80;66.24
13029;BME280;6581;42.662;23.402;2023-04-19T11:17:16;94835.34;;;15.08;66.75
13029;BME280;6581;42.662;23.402;2023-04-19T11:19:44;94832.38;;;15.02;61.87
13029;BME280;6581;42.662;23.402;2023-04-19T11:22:12;94844.34;;;14.87;63.66
13029;BME280;6581;42.662;23.402;2023-04-19T11:24:45;94835.81;;;14.99;62.41
13029;BME280;6581;42.662;23.402;2023-04-19T11:27:12;94830.97;;;14.91;59.26
13029;BME280;6581;42.662;23.402;2023-04-19T11:29:40;94832.94;;;14.83;59.52
13029;BME280;6581;42.662;23.402;2023-04-19T11:32:07;94835.06;;;15.02;62.87
13029;BME280;6581;42.662;23.402;2023-04-19T11:34:35;94831.75;;;14.88;60.91
13029;BME280;6581;42.662;23.402;2023-04-19T11:37:02;94817.44;;;15.12;61.84
13029;BME280;6581;42.662;23.402;2023-04-19T11:39:30;94829.09;;;15.25;60.49
13029;BME280;6581;42.662;23.402;2023-04-19T11:41:58;94833.44;;;15.46;59.50
13029;BME280;6581;42.662;23.402;2023-04-19T11:44:26;94836.81;;;15.50;56.34
13029;BME280;6581;42.662;23.402;2023-04-19T11:46:59;94820.16;;;15.76;57.73
13029;BME280;6581;42.662;23.402;2023-04-19T11:49:28;94822.22;;;15.92;56.62
13029;BME280;6581;42.662;23.402;2023-04-19T11:51:56;94811.69;;;16.08;53.50
13029;BME280;6581;42.662;23.402;2023-04-19T11:54:24;94810.31;;;16.23;53.04
13029;BME280;6581;42.662;23.402;2023-04-19T11:57:03;94814.97;;;16.19;53.00
13029;BME280;6581;42.662;23.402;2023-04-19T11:59:32;94803.81;;;16.24;52.74
13029;BME280;6581;42.662;23.402;2023-04-19T12:02:06;94807.72;;;16.20;51.74
13029;BME280;6581;42.662;23.402;2023-04-19T12:04:34;94814.00;;;16.33;50.31
13029;BME280;6581;42.662;23.402;2023-04-19T12:07:02;94805.19;;;16.36;47.61
13029;BME280;6581;42.662;23.402;2023-04-19T12:09:32;94804.88;;;16.80;47.84
13029;BME280;6581;42.662;23.402;2023-04-19T12:11:59;94795.53;;;16.89;47.43
13029;BME280;6581;42.662;23.402;2023-04-19T12:14:29;94800.53;;;16.40;48.19
13029;BME280;6581;42.662;23.402;2023-04-19T12:17:10;94806.00;;;16.06;60.56
13029;BME280;6581;42.662;23.402;2023-04-19T12:19:42;94806.25;;;15.24;70.06
13029;BME280;6581;42.662;23.402;2023-04-19T12:22:11;94807.81;;;14.81;74.10
13029;BME280;6581;42.662;23.402;2023-04-19T12:24:38;94805.16;;;14.36;76.68
13029;BME280;6581;42.662;23.402;2023-04-19T12:27:06;94795.41;;;14.12;73.79
13029;BME280;6581;42.662;23.402;2023-04-19T12:29:35;94800.75;;;14.08;73.45
13029;BME280;6581;42.662;23.402;2023-04-19T12:32:02;94795.47;;;14.05;74.69
13029;BME280;6581;42.662;23.402;2023-04-19T12:34:30;94790.16;;;13.98;74.04
13029;BME280;6581;42.662;23.402;2023-04-19T12:36:57;94780.69;;;13.97;77.68
13029;BME280;6581;42.662;23.402;2023-04-19T12:39:24;94791.75;;;13.92;76.60
13029;BME280;6581;42.662;23.402;2023-04-19T12:41:51;94793.31;;;13.82;75.51
13029;BME280;6581;42.662;23.402;2023-04-19T12:44:18;94784.47;;;13.96;73.36
13029;BME280;6581;42.662;23.402;2023-04-19T12:46:47;94788.19;;;14.09;71.25
13029;BME280;6581;42.662;23.402;2023-04-19T12:49:17;94794.63;;;14.15;69.73
13029;BME280;6581;42.662;23.402;2023-04-19T12:51:44;94786.94;;;14.24;69.85
13029;BME280;6581;42.662;23.402;2023-04-19T12:54:13;94794.84;;;14.35;69.39
13029;BME280;6581;42.662;23.402;2023-04-19T12:56:41;94796.13;;;14.19;68.28
13029;BME280;6581;42.662;23.402;2023-04-19T12:59:08;94788.56;;;14.11;70.05
13029;BME280;6581;42.662;23.402;2023-04-19T13:02:00;94789.69;;;14.13;67.67
13029;BME280;6581;42.662;23.402;2023-04-19T13:04:27;94797.75;;;14.03;68.96
13029;BME280;6581;42.662;23.402;2023-04-19T13:06:54;94793.25;;;13.93;70.53
13029;BME280;6581;42.662;23.402;2023-04-19T13:09:21;94811.91;;;13.89;72.54
13029;BME280;6581;42.662;23.402;2023-04-19T13:11:48;94820.00;;;13.68;76.05
13029;BME280;6581;42.662;23.402;2023-04-19T13:14:16;94815.09;;;13.63;79.73